sensor_id;sensor_type;location;lat;lon;timestamp;P1;durP1;ratioP1;P2;durP2;ratioP2
4533;SDS011;2279;51.448;7.306;2024-02-26T00:02:05;226.55;;;66.03;;
4533;SDS011;2279;51.448;7.306;2024-02-26T00:04:31;226.18;;;66.78;;
4533;SDS011;2279;51.448;7.306;2024-02-26T00:06:57;226.57;;;67.43;;
4533;SDS011;2279;51.448;7.306;2024-02-26T00:09:26;228.90;;;68.43;;
4533;SDS011;2279;51.448;7.306;2024-02-26T00:11:52;223.97;;;66.00;;
4533;SDS011;2279;51.448;7.306;2024-02-26T00:14:19;226.73;;;66.63;;
4533;SDS011;2279;51.448;7.306;2024-02-26T00:16:45;226.77;;;68.57;;
4533;SDS011;2279;51.448;7.306;2024-02-26T00:19:11;226.70;;;67.03;;
4533;SDS011;2279;51.448;7.306;2024-02-26T00:21:41;224.83;;;65.90;;
4533;SDS011;2279;51.448;7.306;2024-02-26T00:24:10;224.70;;;65.35;;
4533;SDS011;2279;51.448;7.306;2024-02-26T00:26:36;226.43;;;67.17;;
4533;SDS011;2279;51.448;7.306;2024-02-26T00:29:01;226.67;;;66.27;;
4533;SDS011;2279;51.448;7.306;2024-02-26T00:31:27;225.97;;;65.93;;
4533;SDS011;2279;51.448;7.306;2024-02-26T00:33:53;224.87;;;65.03;;
4533;SDS011;2279;51.448;7.306;2024-02-26T00:36:19;226.30;;;66.03;;
4533;SDS011;2279;51.448;7.306;2024-02-26T00:38:45;228.37;;;68.43;;
4533;SDS011;2279;51.448;7.306;2024-02-26T00:41:15;226.48;;;67.97;;
4533;SDS011;2279;51.448;7.306;2024-02-26T00:43:41;227.43;;;67.55;;
4533;SDS011;2279;51.448;7.306;2024-02-26T00:46:07;226.37;;;66.30;;
4533;SDS011;2279;51.448;7.306;2024-02-26T00:48:34;227.77;;;68.30;;
4533;SDS011;2279;51.448;7.306;2024-02-26T00:51:00;226.40;;;68.90;;
4533;SDS011;2279;51.448;7.306;2024-02-26T00:53:25;227.10;;;66.60;;
4533;SDS011;2279;51.448;7.306;2024-02-26T00:55:51;226.73;;;68.00;;
4533;SDS011;2279;51.448;7.306;2024-02-26T00:58:17;224.90;;;66.20;;
4533;SDS011;2279;51.448;7.306;2024-02-26T01:00:44;228.02;;;68.85;;
4533;SDS011;2279;51.448;7.306;2024-02-26T01:03:10;222.77;;;63.53;;
4533;SDS011;2279;51.448;7.306;2024-02-26T01:05:35;226.13;;;67.20;;
4533;SDS011;2279;51.448;7.306;2024-02-26T01:08:03;224.38;;;65.45;;
4533;SDS011;2279;51.448;7.306;2024-02-26T01:10:29;226.15;;;66.30;;
4533;SDS011;2279;51.448;7.306;2024-02-26T01:12:55;225.05;;;66.00;;
4533;SDS011;2279;51.448;7.306;2024-02-26T01:15:21;224.57;;;65.10;;
4533;SDS011;2279;51.448;7.306;2024-02-26T01:17:49;226.15;;;66.50;;
4533;SDS011;2279;51.448;7.306;2024-02-26T01:20:15;226.52;;;67.20;;
4533;SDS011;2279;51.448;7.306;2024-02-26T01:22:42;228.40;;;69.25;;
4533;SDS011;2279;51.448;7.306;2024-02-26T01:25:08;233.52;;;74.10;;
4533;SDS011;2279;51.448;7.306;2024-02-26T01:27:37;225.38;;;66.85;;
4533;SDS011;2279;51.448;7.306;2024-02-26T01:30:03;226.13;;;67.57;;
4533;SDS011;2279;51.448;7.306;2024-02-26T01:32:29;225.02;;;67.18;;
4533;SDS011;2279;51.448;7.306;2024-02-26T01:34:55;223.88;;;65.80;;
4533;SDS011;2279;51.448;7.306;2024-02-26T01:37:21;228.07;;;68.85;;
4533;SDS011;2279;51.448;7.306;2024-02-26T01:39:47;224.60;;;66.40;;
4533;SDS011;2279;51.448;7.306;2024-02-26T01:42:13;227.40;;;68.83;;
4533;SDS011;2279;51.448;7.306;2024-02-26T01:44:39;226.98;;;67.35;;
4533;SDS011;2279;51.448;7.306;2024-02-26T01:47:05;225.37;;;66.37;;
4533;SDS011;2279;51.448;7.306;2024-02-26T01:49:32;225.82;;;66.63;;
4533;SDS011;2279;51.448;7.306;2024-02-26T01:51:58;228.35;;;68.43;;
4533;SDS011;2279;51.448;7.306;2024-02-26T01:54:24;226.25;;;67.53;;
4533;SDS011;2279;51.448;7.306;2024-02-26T01:56:50;225.27;;;66.35;;
4533;SDS011;2279;51.448;7.306;2024-02-26T01:59:16;225.75;;;67.47;;
4533;SDS011;2279;51.448;7.306;2024-02-26T02:01:44;228.13;;;69.00;;
4533;SDS011;2279;51.448;7.306;2024-02-26T02:04:11;224.63;;;66.65;;
4533;SDS011;2279;51.448;7.306;2024-02-26T02:06:37;233.55;;;72.47;;
4533;SDS011;2279;51.448;7.306;2024-02-26T02:09:04;227.07;;;68.30;;
4533;SDS011;2279;51.448;7.306;2024-02-26T02:11:32;227.45;;;69.28;;
4533;SDS011;2279;51.448;7.306;2024-02-26T02:13:59;227.48;;;68.15;;
4533;SDS011;2279;51.448;7.306;2024-02-26T02:16:25;226.55;;;66.78;;
4533;SDS011;2279;51.448;7.306;2024-02-26T02:18:51;226.98;;;68.85;;
4533;SDS011;2279;51.448;7.306;2024-02-26T02:21:17;227.23;;;68.97;;
4533;SDS011;2279;51.448;7.306;2024-02-26T02:23:43;229.57;;;70.57;;
4533;SDS011;2279;51.448;7.306;2024-02-26T02:26:11;225.98;;;68.38;;
4533;SDS011;2279;51.448;7.306;2024-02-26T02:28:37;225.02;;;68.22;;
4533;SDS011;2279;51.448;7.306;2024-02-26T02:31:04;224.73;;;66.28;;
4533;SDS011;2279;51.448;7.306;2024-02-26T02:33:31;227.05;;;69.07;;
4533;SDS011;2279;51.448;7.306;2024-02-26T02:35:57;226.32;;;68.70;;
4533;SDS011;2279;51.448;7.306;2024-02-26T02:38:23;226.63;;;68.40;;
4533;SDS011;2279;51.448;7.306;2024-02-26T02:40:51;227.27;;;70.07;;
4533;SDS011;2279;51.448;7.306;2024-02-26T02:43:17;223.15;;;66.18;;
4533;SDS011;2279;51.448;7.306;2024-02-26T02:45:43;225.95;;;68.05;;
4533;SDS011;2279;51.448;7.306;2024-02-26T02:48:10;223.67;;;65.77;;
4533;SDS011;2279;51.448;7.306;2024-02-26T02:50:36;226.07;;;67.63;;
4533;SDS011;2279;51.448;7.306;2024-02-26T02:53:02;226.30;;;68.40;;
4533;SDS011;2279;51.448;7.306;2024-02-26T02:55:28;223.40;;;66.38;;
4533;SDS011;2279;51.448;7.306;2024-02-26T02:57:54;224.77;;;66.20;;
4533;SDS011;2279;51.448;7.306;2024-02-26T03:00:20;225.97;;;68.43;;
4533;SDS011;2279;51.448;7.306;2024-02-26T03:02:49;223.38;;;67.28;;
4533;SDS011;2279;51.448;7.306;2024-02-26T03:05:15;228.23;;;70.45;;
4533;SDS011;2279;51.448;7.306;2024-02-26T03:07:41;226.00;;;68.28;;
4533;SDS011;2279;51.448;7.306;2024-02-26T03:10:08;226.10;;;69.95;;
4533;SDS011;2279;51.448;7.306;2024-02-26T03:12:34;225.30;;;68.40;;
4533;SDS011;2279;51.448;7.306;2024-02-26T03:15:00;224.45;;;66.63;;
4533;SDS011;2279;51.448;7.306;2024-02-26T03:17:29;225.50;;;66.78;;
4533;SDS011;2279;51.448;7.306;2024-02-26T03:19:55;223.35;;;66.45;;
4533;SDS011;2279;51.448;7.306;2024-02-26T03:22:21;221.65;;;64.72;;
4533;SDS011;2279;51.448;7.306;2024-02-26T03:24:47;224.40;;;67.05;;
4533;SDS011;2279;51.448;7.306;2024-02-26T03:27:13;223.45;;;64.85;;
4533;SDS011;2279;51.448;7.306;2024-02-26T03:29:40;223.80;;;65.80;;
4533;SDS011;2279;51.448;7.306;2024-02-26T03:32:06;221.73;;;64.78;;
4533;SDS011;2279;51.448;7.306;2024-02-26T03:34:32;223.25;;;64.57;;
4533;SDS011;2279;51.448;7.306;2024-02-26T03:37:04;222.10;;;63.08;;
4533;SDS011;2279;51.448;7.306;2024-02-26T03:39:30;220.00;;;61.88;;
4533;SDS011;2279;51.448;7.306;2024-02-26T03:41:56;222.45;;;62.05;;
4533;SDS011;2279;51.448;7.306;2024-02-26T03:44:22;220.23;;;61.50;;
4533;SDS011;2279;51.448;7.306;2024-02-26T03:46:48;222.77;;;62.97;;
4533;SDS011;2279;51.448;7.306;2024-02-26T03:49:14;222.00;;;62.28;;
4533;SDS011;2279;51.448;7.306;2024-02-26T03:51:40;222.00;;;62.97;;
4533;SDS011;2279;51.448;7.306;2024-02-26T03:54:06;220.87;;;61.90;;
4533;SDS011;2279;51.448;7.306;2024-02-26T03:56:32;219.03;;;60.97;;
4533;SDS011;2279;51.448;7.306;2024-02-26T03:58:58;218.75;;;60.22;;
4533;SDS011;2279;51.448;7.306;2024-02-26T04:01:26;220.10;;;61.30;;
4533;SDS011;2279;51.448;7.306;2024-02-26T04:03:53;220.98;;;61.92;;
4533;SDS011;2279;51.448;7.306;2024-02-26T04:06:19;221.37;;;62.37;;
4533;SDS011;2279;51.448;7.306;2024-02-26T04:08:46;220.77;;;61.35;;
4533;SDS011;2279;51.448;7.306;2024-02-26T04:11:12;219.40;;;61.05;;
4533;SDS011;2279;51.448;7.306;2024-02-26T04:13:38;219.30;;;59.20;;
4533;SDS011;2279;51.448;7.306;2024-02-26T04:16:04;218.07;;;59.37;;
4533;SDS011;2279;51.448;7.306;2024-02-26T04:18:31;218.98;;;59.97;;
4533;SDS011;2279;51.448;7.306;2024-02-26T04:20:57;219.18;;;59.95;;
4533;SDS011;2279;51.448;7.306;2024-02-26T04:23:23;219.68;;;59.55;;
4533;SDS011;2279;51.448;7.306;2024-02-26T04:25:50;218.43;;;59.60;;
4533;SDS011;2279;51.448;7.306;2024-02-26T04:28:18;218.32;;;58.60;;
4533;SDS011;2279;51.448;7.306;2024-02-26T04:30:45;218.73;;;57.72;;
4533;SDS011;2279;51.448;7.306;2024-02-26T04:33:11;217.43;;;58.37;;
4533;SDS011;2279;51.448;7.306;2024-02-26T04:35:37;217.97;;;58.97;;
4533;SDS011;2279;51.448;7.306;2024-02-26T04:38:03;217.57;;;58.00;;
4533;SDS011;2279;51.448;7.306;2024-02-26T04:40:29;217.85;;;57.25;;
4533;SDS011;2279;51.448;7.306;2024-02-26T04:42:55;217.17;;;57.00;;
4533;SDS011;2279;51.448;7.306;2024-02-26T04:45:22;216.43;;;57.15;;
4533;SDS011;2279;51.448;7.306;2024-02-26T04:47:48;215.95;;;56.40;;
4533;SDS011;2279;51.448;7.306;2024-02-26T04:50:14;219.03;;;59.20;;
4533;SDS011;2279;51.448;7.306;2024-02-26T04:52:40;217.98;;;57.00;;
4533;SDS011;2279;51.448;7.306;2024-02-26T04:55:06;222.88;;;62.58;;
4533;SDS011;2279;51.448;7.306;2024-02-26T04:57:33;216.93;;;56.30;;
4533;SDS011;2279;51.448;7.306;2024-02-26T04:59:59;219.20;;;57.92;;
4533;SDS011;2279;51.448;7.306;2024-02-26T05:02:25;218.63;;;58.47;;
4533;SDS011;2279;51.448;7.306;2024-02-26T05:04:51;220.77;;;58.85;;
4533;SDS011;2279;51.448;7.306;2024-02-26T05:07:17;218.38;;;58.15;;
4533;SDS011;2279;51.448;7.306;2024-02-26T05:09:43;215.87;;;56.60;;
4533;SDS011;2279;51.448;7.306;2024-02-26T05:12:09;218.13;;;57.85;;
4533;SDS011;2279;51.448;7.306;2024-02-26T05:14:35;218.25;;;57.22;;
4533;SDS011;2279;51.448;7.306;2024-02-26T05:17:01;218.37;;;58.63;;
4533;SDS011;2279;51.448;7.306;2024-02-26T05:19:27;218.23;;;57.70;;
4533;SDS011;2279;51.448;7.306;2024-02-26T05:21:53;217.20;;;56.43;;
4533;SDS011;2279;51.448;7.306;2024-02-26T05:24:19;216.93;;;57.77;;
4533;SDS011;2279;51.448;7.306;2024-02-26T05:26:47;219.00;;;57.80;;
4533;SDS011;2279;51.448;7.306;2024-02-26T05:29:13;215.87;;;55.57;;
4533;SDS011;2279;51.448;7.306;2024-02-26T05:31:41;219.88;;;58.88;;
4533;SDS011;2279;51.448;7.306;2024-02-26T05:34:07;217.85;;;57.15;;
4533;SDS011;2279;51.448;7.306;2024-02-26T05:36:33;220.80;;;58.67;;
4533;SDS011;2279;51.448;7.306;2024-02-26T05:38:59;214.73;;;54.50;;
4533;SDS011;2279;51.448;7.306;2024-02-26T05:41:25;215.98;;;55.38;;
4533;SDS011;2279;51.448;7.306;2024-02-26T05:43:52;218.50;;;57.38;;
4533;SDS011;2279;51.448;7.306;2024-02-26T05:46:18;219.38;;;57.72;;
4533;SDS011;2279;51.448;7.306;2024-02-26T05:48:46;214.23;;;54.42;;
4533;SDS011;2279;51.448;7.306;2024-02-26T05:51:12;217.27;;;56.63;;
4533;SDS011;2279;51.448;7.306;2024-02-26T05:53:38;216.57;;;55.50;;
4533;SDS011;2279;51.448;7.306;2024-02-26T05:56:04;215.63;;;55.63;;
4533;SDS011;2279;51.448;7.306;2024-02-26T05:58:32;215.77;;;56.70;;
4533;SDS011;2279;51.448;7.306;2024-02-26T06:00:58;217.27;;;56.63;;
4533;SDS011;2279;51.448;7.306;2024-02-26T06:03:25;217.52;;;56.83;;
4533;SDS011;2279;51.448;7.306;2024-02-26T06:05:51;220.60;;;58.13;;
4533;SDS011;2279;51.448;7.306;2024-02-26T06:08:23;217.77;;;56.20;;
4533;SDS011;2279;51.448;7.306;2024-02-26T06:10:50;216.70;;;55.63;;
4533;SDS011;2279;51.448;7.306;2024-02-26T06:13:16;217.38;;;56.40;;
4533;SDS011;2279;51.448;7.306;2024-02-26T06:15:42;219.00;;;57.17;;
4533;SDS011;2279;51.448;7.306;2024-02-26T06:18:09;216.47;;;55.90;;
4533;SDS011;2279;51.448;7.306;2024-02-26T06:20:35;216.60;;;55.90;;
4533;SDS011;2279;51.448;7.306;2024-02-26T06:23:01;216.35;;;56.63;;
4533;SDS011;2279;51.448;7.306;2024-02-26T06:25:27;217.13;;;56.60;;
4533;SDS011;2279;51.448;7.306;2024-02-26T06:27:53;219.77;;;58.47;;
4533;SDS011;2279;51.448;7.306;2024-02-26T06:30:20;219.50;;;57.22;;
4533;SDS011;2279;51.448;7.306;2024-02-26T06:32:47;216.93;;;56.20;;
4533;SDS011;2279;51.448;7.306;2024-02-26T06:35:12;221.77;;;58.70;;
4533;SDS011;2279;51.448;7.306;2024-02-26T06:37:38;217.10;;;55.70;;
4533;SDS011;2279;51.448;7.306;2024-02-26T06:40:05;218.00;;;57.17;;
4533;SDS011;2279;51.448;7.306;2024-02-26T06:42:31;220.90;;;58.53;;
4533;SDS011;2279;51.448;7.306;2024-02-26T06:44:57;222.05;;;59.58;;
4533;SDS011;2279;51.448;7.306;2024-02-26T06:47:23;219.52;;;58.80;;
4533;SDS011;2279;51.448;7.306;2024-02-26T06:49:50;219.30;;;58.35;;
4533;SDS011;2279;51.448;7.306;2024-02-26T06:52:16;217.03;;;56.60;;
4533;SDS011;2279;51.448;7.306;2024-02-26T06:54:42;220.15;;;58.65;;
4533;SDS011;2279;51.448;7.306;2024-02-26T06:57:09;218.52;;;57.72;;
4533;SDS011;2279;51.448;7.306;2024-02-26T06:59:36;217.70;;;56.03;;
4533;SDS011;2279;51.448;7.306;2024-02-26T07:02:02;218.27;;;57.23;;
4533;SDS011;2279;51.448;7.306;2024-02-26T07:04:27;218.57;;;56.13;;
4533;SDS011;2279;51.448;7.306;2024-02-26T07:06:53;217.20;;;56.93;;
4533;SDS011;2279;51.448;7.306;2024-02-26T07:09:19;216.57;;;55.40;;
4533;SDS011;2279;51.448;7.306;2024-02-26T07:11:45;216.73;;;56.70;;
4533;SDS011;2279;51.448;7.306;2024-02-26T07:14:12;218.15;;;56.75;;
4533;SDS011;2279;51.448;7.306;2024-02-26T07:16:38;217.98;;;56.80;;
4533;SDS011;2279;51.448;7.306;2024-02-26T07:19:04;217.40;;;55.88;;
4533;SDS011;2279;51.448;7.306;2024-02-26T07:21:30;216.27;;;55.03;;
4533;SDS011;2279;51.448;7.306;2024-02-26T07:23:56;224.80;;;61.42;;
4533;SDS011;2279;51.448;7.306;2024-02-26T07:26:22;218.75;;;57.20;;
4533;SDS011;2279;51.448;7.306;2024-02-26T07:28:50;219.13;;;57.15;;
4533;SDS011;2279;51.448;7.306;2024-02-26T07:31:19;218.65;;;56.05;;
4533;SDS011;2279;51.448;7.306;2024-02-26T07:33:45;218.13;;;56.55;;
4533;SDS011;2279;51.448;7.306;2024-02-26T07:36:11;216.47;;;54.00;;
4533;SDS011;2279;51.448;7.306;2024-02-26T07:38:37;215.83;;;54.03;;
4533;SDS011;2279;51.448;7.306;2024-02-26T07:41:03;218.27;;;55.60;;
4533;SDS011;2279;51.448;7.306;2024-02-26T07:43:29;217.30;;;55.20;;
4533;SDS011;2279;51.448;7.306;2024-02-26T07:45:55;216.63;;;54.60;;
4533;SDS011;2279;51.448;7.306;2024-02-26T07:48:21;218.18;;;56.33;;
4533;SDS011;2279;51.448;7.306;2024-02-26T07:50:47;218.83;;;55.17;;
4533;SDS011;2279;51.448;7.306;2024-02-26T07:53:13;216.07;;;53.70;;
4533;SDS011;2279;51.448;7.306;2024-02-26T07:55:39;223.50;;;61.08;;
4533;SDS011;2279;51.448;7.306;2024-02-26T07:58:06;217.90;;;57.73;;
4533;SDS011;2279;51.448;7.306;2024-02-26T08:00:32;223.98;;;60.00;;
4533;SDS011;2279;51.448;7.306;2024-02-26T08:02:58;219.47;;;57.57;;
4533;SDS011;2279;51.448;7.306;2024-02-26T08:05:24;218.87;;;57.83;;
4533;SDS011;2279;51.448;7.306;2024-02-26T08:07:50;218.27;;;57.22;;
4533;SDS011;2279;51.448;7.306;2024-02-26T08:10:16;219.38;;;57.25;;
4533;SDS011;2279;51.448;7.306;2024-02-26T08:12:42;219.43;;;58.15;;
4533;SDS011;2279;51.448;7.306;2024-02-26T08:15:08;224.75;;;61.00;;
4533;SDS011;2279;51.448;7.306;2024-02-26T08:17:34;219.80;;;56.38;;
4533;SDS011;2279;51.448;7.306;2024-02-26T08:20:01;221.18;;;57.85;;
4533;SDS011;2279;51.448;7.306;2024-02-26T08:22:27;222.73;;;58.63;;
4533;SDS011;2279;51.448;7.306;2024-02-26T08:24:53;224.25;;;60.08;;
4533;SDS011;2279;51.448;7.306;2024-02-26T08:27:19;220.95;;;56.25;;
4533;SDS011;2279;51.448;7.306;2024-02-26T08:29:45;220.03;;;56.27;;
4533;SDS011;2279;51.448;7.306;2024-02-26T08:32:11;217.50;;;54.80;;
4533;SDS011;2279;51.448;7.306;2024-02-26T08:34:37;221.43;;;58.23;;
4533;SDS011;2279;51.448;7.306;2024-02-26T08:37:03;220.87;;;57.83;;
4533;SDS011;2279;51.448;7.306;2024-02-26T08:39:29;217.17;;;54.63;;
4533;SDS011;2279;51.448;7.306;2024-02-26T08:41:55;218.87;;;56.00;;
4533;SDS011;2279;51.448;7.306;2024-02-26T08:44:21;220.03;;;56.47;;
4533;SDS011;2279;51.448;7.306;2024-02-26T08:46:47;215.93;;;53.67;;
4533;SDS011;2279;51.448;7.306;2024-02-26T08:49:13;220.30;;;56.42;;
4533;SDS011;2279;51.448;7.306;2024-02-26T08:51:41;220.60;;;56.80;;
4533;SDS011;2279;51.448;7.306;2024-02-26T08:54:08;220.10;;;55.50;;
4533;SDS011;2279;51.448;7.306;2024-02-26T08:56:34;217.10;;;54.70;;
4533;SDS011;2279;51.448;7.306;2024-02-26T08:59:00;218.13;;;56.43;;
4533;SDS011;2279;51.448;7.306;2024-02-26T09:01:29;218.38;;;55.17;;
4533;SDS011;2279;51.448;7.306;2024-02-26T09:03:55;218.48;;;55.00;;
4533;SDS011;2279;51.448;7.306;2024-02-26T09:06:21;222.07;;;57.08;;
4533;SDS011;2279;51.448;7.306;2024-02-26T09:08:47;220.13;;;55.80;;
4533;SDS011;2279;51.448;7.306;2024-02-26T09:11:13;221.13;;;57.40;;
4533;SDS011;2279;51.448;7.306;2024-02-26T09:13:39;219.70;;;56.00;;
4533;SDS011;2279;51.448;7.306;2024-02-26T09:16:05;222.53;;;57.67;;
4533;SDS011;2279;51.448;7.306;2024-02-26T09:18:31;222.73;;;58.38;;
4533;SDS011;2279;51.448;7.306;2024-02-26T09:20:57;220.27;;;56.70;;
4533;SDS011;2279;51.448;7.306;2024-02-26T09:23:23;221.57;;;57.40;;
4533;SDS011;2279;51.448;7.306;2024-02-26T09:25:49;221.63;;;58.17;;
4533;SDS011;2279;51.448;7.306;2024-02-26T09:28:15;221.23;;;57.43;;
4533;SDS011;2279;51.448;7.306;2024-02-26T09:30:42;222.40;;;57.10;;
4533;SDS011;2279;51.448;7.306;2024-02-26T09:33:08;220.32;;;56.17;;
4533;SDS011;2279;51.448;7.306;2024-02-26T09:35:34;219.73;;;56.07;;
4533;SDS011;2279;51.448;7.306;2024-02-26T09:38:00;219.97;;;57.30;;
4533;SDS011;2279;51.448;7.306;2024-02-26T09:40:26;221.05;;;57.17;;
4533;SDS011;2279;51.448;7.306;2024-02-26T09:42:53;220.48;;;58.08;;
4533;SDS011;2279;51.448;7.306;2024-02-26T09:45:22;225.30;;;59.88;;
4533;SDS011;2279;51.448;7.306;2024-02-26T09:47:50;221.60;;;57.95;;
4533;SDS011;2279;51.448;7.306;2024-02-26T09:50:17;222.55;;;57.55;;
4533;SDS011;2279;51.448;7.306;2024-02-26T09:52:47;221.65;;;56.47;;
4533;SDS011;2279;51.448;7.306;2024-02-26T09:55:13;225.43;;;60.10;;
4533;SDS011;2279;51.448;7.306;2024-02-26T09:57:40;225.17;;;58.47;;
4533;SDS011;2279;51.448;7.306;2024-02-26T10:00:08;222.23;;;57.95;;
4533;SDS011;2279;51.448;7.306;2024-02-26T10:02:35;222.93;;;59.30;;
4533;SDS011;2279;51.448;7.306;2024-02-26T10:05:02;223.93;;;57.83;;
4533;SDS011;2279;51.448;7.306;2024-02-26T10:07:31;223.88;;;58.33;;
4533;SDS011;2279;51.448;7.306;2024-02-26T10:09:57;223.18;;;58.65;;
4533;SDS011;2279;51.448;7.306;2024-02-26T10:12:24;222.55;;;57.80;;
4533;SDS011;2279;51.448;7.306;2024-02-26T10:14:52;222.88;;;58.17;;
4533;SDS011;2279;51.448;7.306;2024-02-26T10:17:18;222.30;;;57.60;;
4533;SDS011;2279;51.448;7.306;2024-02-26T10:19:44;226.70;;;60.22;;
4533;SDS011;2279;51.448;7.306;2024-02-26T10:22:10;225.75;;;59.88;;
4533;SDS011;2279;51.448;7.306;2024-02-26T10:24:36;222.57;;;58.85;;
4533;SDS011;2279;51.448;7.306;2024-02-26T10:27:02;225.33;;;60.27;;
4533;SDS011;2279;51.448;7.306;2024-02-26T10:29:28;225.07;;;59.67;;
4533;SDS011;2279;51.448;7.306;2024-02-26T10:31:54;225.40;;;59.90;;
4533;SDS011;2279;51.448;7.306;2024-02-26T10:34:24;222.27;;;57.83;;
4533;SDS011;2279;51.448;7.306;2024-02-26T10:36:50;226.35;;;59.45;;
4533;SDS011;2279;51.448;7.306;2024-02-26T10:39:16;223.23;;;58.47;;
4533;SDS011;2279;51.448;7.306;2024-02-26T10:41:43;228.55;;;62.50;;
4533;SDS011;2279;51.448;7.306;2024-02-26T10:44:10;224.32;;;59.70;;
4533;SDS011;2279;51.448;7.306;2024-02-26T10:46:37;228.88;;;61.28;;
4533;SDS011;2279;51.448;7.306;2024-02-26T10:49:03;225.77;;;59.50;;
4533;SDS011;2279;51.448;7.306;2024-02-26T10:51:31;226.70;;;59.83;;
4533;SDS011;2279;51.448;7.306;2024-02-26T10:53:58;228.48;;;60.67;;
4533;SDS011;2279;51.448;7.306;2024-02-26T10:56:29;227.15;;;60.22;;
4533;SDS011;2279;51.448;7.306;2024-02-26T10:58:59;227.35;;;59.53;;
4533;SDS011;2279;51.448;7.306;2024-02-26T11:01:25;227.55;;;60.50;;
4533;SDS011;2279;51.448;7.306;2024-02-26T11:03:54;231.50;;;63.15;;
4533;SDS011;2279;51.448;7.306;2024-02-26T11:06:21;227.60;;;60.00;;
4533;SDS011;2279;51.448;7.306;2024-02-26T11:08:50;229.15;;;62.05;;
4533;SDS011;2279;51.448;7.306;2024-02-26T11:11:20;226.50;;;61.42;;
4533;SDS011;2279;51.448;7.306;2024-02-26T11:13:47;229.95;;;61.67;;
4533;SDS011;2279;51.448;7.306;2024-02-26T11:16:19;227.73;;;60.35;;
4533;SDS011;2279;51.448;7.306;2024-02-26T11:18:46;228.75;;;62.92;;
4533;SDS011;2279;51.448;7.306;2024-02-26T11:21:15;229.50;;;61.95;;
4533;SDS011;2279;51.448;7.306;2024-02-26T11:23:47;229.35;;;60.88;;
4533;SDS011;2279;51.448;7.306;2024-02-26T11:26:13;229.77;;;62.25;;
4533;SDS011;2279;51.448;7.306;2024-02-26T11:28:40;231.23;;;63.80;;
4533;SDS011;2279;51.448;7.306;2024-02-26T11:31:06;231.18;;;64.70;;
4533;SDS011;2279;51.448;7.306;2024-02-26T11:33:33;228.80;;;63.58;;
4533;SDS011;2279;51.448;7.306;2024-02-26T11:36:01;228.82;;;61.35;;
4533;SDS011;2279;51.448;7.306;2024-02-26T11:38:27;232.05;;;64.97;;
4533;SDS011;2279;51.448;7.306;2024-02-26T11:40:53;230.75;;;62.35;;
4533;SDS011;2279;51.448;7.306;2024-02-26T11:43:23;229.52;;;62.42;;
4533;SDS011;2279;51.448;7.306;2024-02-26T11:45:50;231.00;;;62.72;;
4533;SDS011;2279;51.448;7.306;2024-02-26T11:48:24;231.15;;;62.30;;
4533;SDS011;2279;51.448;7.306;2024-02-26T11:50:54;234.45;;;65.47;;
4533;SDS011;2279;51.448;7.306;2024-02-26T11:58:38;236.27;;;68.43;;
4533;SDS011;2279;51.448;7.306;2024-02-26T12:01:05;234.18;;;67.60;;
4533;SDS011;2279;51.448;7.306;2024-02-26T12:03:31;232.37;;;66.70;;
4533;SDS011;2279;51.448;7.306;2024-02-26T12:05:57;233.98;;;66.72;;
4533;SDS011;2279;51.448;7.306;2024-02-26T12:08:23;235.63;;;69.57;;
4533;SDS011;2279;51.448;7.306;2024-02-26T12:10:50;235.52;;;67.40;;
4533;SDS011;2279;51.448;7.306;2024-02-26T12:13:19;234.50;;;70.45;;
4533;SDS011;2279;51.448;7.306;2024-02-26T12:15:56;235.30;;;69.57;;
4533;SDS011;2279;51.448;7.306;2024-02-26T12:18:23;233.13;;;68.93;;
4533;SDS011;2279;51.448;7.306;2024-02-26T12:20:59;240.43;;;71.60;;
4533;SDS011;2279;51.448;7.306;2024-02-26T12:23:26;233.23;;;67.78;;
4533;SDS011;2279;51.448;7.306;2024-02-26T12:25:53;231.65;;;67.85;;
4533;SDS011;2279;51.448;7.306;2024-02-26T12:28:19;232.67;;;66.37;;
4533;SDS011;2279;51.448;7.306;2024-02-26T12:30:45;233.80;;;67.37;;
4533;SDS011;2279;51.448;7.306;2024-02-26T12:33:11;230.93;;;65.68;;
4533;SDS011;2279;51.448;7.306;2024-02-26T12:35:37;231.60;;;65.37;;
4533;SDS011;2279;51.448;7.306;2024-02-26T12:38:03;231.07;;;67.10;;
4533;SDS011;2279;51.448;7.306;2024-02-26T12:40:29;237.38;;;71.35;;
4533;SDS011;2279;51.448;7.306;2024-02-26T12:42:55;235.32;;;70.05;;
4533;SDS011;2279;51.448;7.306;2024-02-26T12:45:21;232.00;;;67.88;;
4533;SDS011;2279;51.448;7.306;2024-02-26T12:47:47;234.45;;;69.75;;
4533;SDS011;2279;51.448;7.306;2024-02-26T12:50:16;237.80;;;69.78;;
4533;SDS011;2279;51.448;7.306;2024-02-26T12:52:45;231.63;;;68.30;;
4533;SDS011;2279;51.448;7.306;2024-02-26T12:55:15;239.45;;;75.60;;
4533;SDS011;2279;51.448;7.306;2024-02-26T12:57:41;230.55;;;66.13;;
4533;SDS011;2279;51.448;7.306;2024-02-26T13:00:08;232.13;;;67.65;;
4533;SDS011;2279;51.448;7.306;2024-02-26T13:02:36;247.20;;;79.85;;
4533;SDS011;2279;51.448;7.306;2024-02-26T13:05:03;233.57;;;68.53;;
4533;SDS011;2279;51.448;7.306;2024-02-26T13:07:29;233.00;;;67.10;;
4533;SDS011;2279;51.448;7.306;2024-02-26T13:09:55;234.20;;;69.60;;
4533;SDS011;2279;51.448;7.306;2024-02-26T13:12:21;239.07;;;74.03;;
4533;SDS011;2279;51.448;7.306;2024-02-26T13:14:48;238.15;;;71.75;;
4533;SDS011;2279;51.448;7.306;2024-02-26T13:17:23;231.25;;;66.93;;
4533;SDS011;2279;51.448;7.306;2024-02-26T13:19:52;235.98;;;70.20;;
4533;SDS011;2279;51.448;7.306;2024-02-26T13:22:20;236.43;;;69.05;;
4533;SDS011;2279;51.448;7.306;2024-02-26T13:24:53;236.32;;;69.93;;
4533;SDS011;2279;51.448;7.306;2024-02-26T13:27:23;236.05;;;71.38;;
4533;SDS011;2279;51.448;7.306;2024-02-26T13:30:01;237.27;;;71.60;;
4533;SDS011;2279;51.448;7.306;2024-02-26T13:32:27;241.25;;;78.88;;
4533;SDS011;2279;51.448;7.306;2024-02-26T13:35:03;236.70;;;73.57;;
4533;SDS011;2279;51.448;7.306;2024-02-26T13:37:30;236.73;;;71.80;;
4533;SDS011;2279;51.448;7.306;2024-02-26T13:39:56;238.03;;;72.47;;
4533;SDS011;2279;51.448;7.306;2024-02-26T13:42:22;236.27;;;70.63;;
4533;SDS011;2279;51.448;7.306;2024-02-26T13:44:48;239.17;;;75.23;;
4533;SDS011;2279;51.448;7.306;2024-02-26T13:47:14;236.50;;;72.10;;
4533;SDS011;2279;51.448;7.306;2024-02-26T13:49:41;237.00;;;71.53;;
4533;SDS011;2279;51.448;7.306;2024-02-26T13:52:07;235.20;;;69.57;;
4533;SDS011;2279;51.448;7.306;2024-02-26T13:54:33;233.00;;;68.27;;
4533;SDS011;2279;51.448;7.306;2024-02-26T13:56:59;234.30;;;69.03;;
4533;SDS011;2279;51.448;7.306;2024-02-26T13:59:25;234.30;;;69.90;;
4533;SDS011;2279;51.448;7.306;2024-02-26T14:01:51;236.20;;;71.17;;
4533;SDS011;2279;51.448;7.306;2024-02-26T14:04:19;236.52;;;72.03;;
4533;SDS011;2279;51.448;7.306;2024-02-26T14:06:45;234.77;;;70.00;;
4533;SDS011;2279;51.448;7.306;2024-02-26T14:09:11;234.10;;;69.10;;
4533;SDS011;2279;51.448;7.306;2024-02-26T14:11:43;234.93;;;70.57;;
4533;SDS011;2279;51.448;7.306;2024-02-26T14:14:09;239.00;;;74.13;;
4533;SDS011;2279;51.448;7.306;2024-02-26T14:16:35;233.80;;;69.50;;
4533;SDS011;2279;51.448;7.306;2024-02-26T14:19:01;237.50;;;73.93;;
4533;SDS011;2279;51.448;7.306;2024-02-26T14:21:27;235.18;;;71.25;;
4533;SDS011;2279;51.448;7.306;2024-02-26T14:23:54;237.18;;;72.03;;
4533;SDS011;2279;51.448;7.306;2024-02-26T14:26:21;234.90;;;70.40;;
4533;SDS011;2279;51.448;7.306;2024-02-26T14:28:46;237.77;;;73.18;;
4533;SDS011;2279;51.448;7.306;2024-02-26T14:31:12;233.17;;;68.17;;
4533;SDS011;2279;51.448;7.306;2024-02-26T14:33:38;235.63;;;73.70;;
4533;SDS011;2279;51.448;7.306;2024-02-26T14:36:09;242.57;;;77.47;;